Nouasseur, Morocco
Current Conditions -  °F | °C
As of 7:30 AM on Wednesday 28 Jan 2015 (Local Time) from GMMN Reporting Station
Haze Haze  
Wind Chill: 38°   Ceiling: 400
Heat Index: 41°   Visibility: 3mi
Dew Point: 41°   Wind: 5mph
Humidity: 100%   Direction: 120°ESE
Pressure: 30.33"   Gusts: NA
Location:  33.37°N, 7.58°W
Report Text: GMMN 280630Z 12004KT 4800 BR BKN004 05/05 Q1027 NOSIG
Loading
Personal Weather Stations






























Interactive Weather Map New forecast layout! Learn more

10-Day Weather Forecast

Advertisements
Track Severe Weather on mobile